Time;durP1;ratioP1;P1;durP2;ratioP2;P2;SDS_P1;SDS_P2;PMS_P1;PMS_P2;Temp;Humidity;BMP_temperature;BMP_pressure;BME280_temperature;BME280_humidity;BME280_pressure;Samples;Min_cycle;Max_cycle;Signal;HPM_P1;HPM_P2
2021/08/06 00:01:15;;;;;;;;;;;19.90;80.30;;;;;;5073192;28;19935;-82
2021/08/06 00:03:40;;;;;;;;;;;19.90;80.30;;;;;;5074298;28;19904;-82
2021/08/06 00:06:06;;;;;;;;;;;19.90;80.10;;;;;;5074447;28;20490;-82
2021/08/06 00:08:32;;;;;;;;;;;20.00;80.30;;;;;;5072706;28;19916;-81
2021/08/06 00:10:58;;;;;;;;;;;20.00;80.10;;;;;;5073070;28;19919;-82
2021/08/06 00:13:23;;;;;;;;;;;20.00;80.30;;;;;;5055929;28;19912;-82
2021/08/06 00:15:49;;;;;;;;;;;20.00;80.40;;;;;;5074286;28;20345;-82
2021/08/06 00:18:14;;;;;;;;;;;20.00;80.40;;;;;;5088633;28;19919;-82
2021/08/06 00:20:40;;;;;;;;;;;20.00;80.40;;;;;;5073465;28;20273;-81
2021/08/06 00:23:05;;;;;;;;;;;20.00;80.40;;;;;;5071469;28;19912;-82
2021/08/06 00:25:31;;;;;;;;;;;20.00;80.50;;;;;;5073719;28;19915;-82
2021/08/06 00:27:57;;;;;;;;;;;20.00;80.40;;;;;;5066060;28;19912;-82
2021/08/06 00:30:22;;;;;;;;;;;19.90;80.40;;;;;;5054128;28;20003;-82
2021/08/06 00:32:48;;;;;;;;;;;19.90;80.60;;;;;;5052882;28;19974;-82
2021/08/06 00:35:14;;;;;;;;;;;19.90;80.90;;;;;;5070640;28;19908;-82
2021/08/06 00:37:39;;;;;;;;;;;19.90;81.00;;;;;;5072721;28;20414;-82
2021/08/06 00:40:05;;;;;;;;;;;19.90;81.00;;;;;;5073638;28;19977;-82
2021/08/06 00:42:30;;;;;;;;;;;19.90;81.10;;;;;;5064826;28;19913;-82
2021/08/06 00:44:56;;;;;;;;;;;19.90;81.00;;;;;;5058160;28;20262;-81
2021/08/06 00:47:22;;;;;;;;;;;19.90;80.90;;;;;;5089405;28;19915;-82
2021/08/06 00:49:47;;;;;;;;;;;19.90;80.80;;;;;;5073766;28;19919;-82
2021/08/06 00:52:14;;;;;;;;;;;19.90;80.70;;;;;;5072694;28;19904;-82
2021/08/06 00:54:40;;;;;;;;;;;19.90;80.70;;;;;;5072516;28;19909;-82
2021/08/06 00:57:06;;;;;;;;;;;19.90;80.80;;;;;;5071932;28;19951;-82
2021/08/06 00:59:31;;;;;;;;;;;19.90;80.80;;;;;;5055004;28;19912;-82
2021/08/06 01:02:26;;;;;;;;;;;19.90;81.00;;;;;;5072968;28;19916;-82
2021/08/06 01:05:00;;;;;;;;;;;19.90;81.00;;;;;;5062685;28;19914;-82
2021/08/06 01:07:33;;;;;;;;;;;19.90;80.90;;;;;;5071484;28;19912;-82
2021/08/06 01:10:04;;;;;;;;;;;19.90;80.90;;;;;;5073350;28;19916;-82
2021/08/06 01:12:37;;;;;;;;;;;19.90;80.80;;;;;;5072229;28;20351;-82
2021/08/06 01:15:03;;;;;;;;;;;19.90;80.80;;;;;;5072255;28;19904;-82
2021/08/06 01:17:34;;;;;;;;;;;19.90;80.80;;;;;;5073552;28;20456;-82
2021/08/06 01:20:29;;;;;;;;;;;19.90;80.70;;;;;;5072363;28;19911;-81
2021/08/06 01:23:03;;;;;;;;;;;19.90;80.70;;;;;;5055495;28;19904;-82
2021/08/06 01:25:42;;;;;;;;;;;19.90;80.90;;;;;;5071944;28;19904;-82
2021/08/06 01:28:08;;;;;;;;;;;19.80;80.60;;;;;;5073289;28;19912;-82
2021/08/06 01:30:34;;;;;;;;;;;19.80;80.60;;;;;;5091828;28;19931;-82
2021/08/06 01:32:59;;;;;;;;;;;19.80;80.50;;;;;;5077287;28;19904;-82
2021/08/06 01:35:25;;;;;;;;;;;19.80;80.50;;;;;;5076071;28;20338;-82
2021/08/06 01:37:50;;;;;;;;;;;19.80;80.50;;;;;;5092999;28;19915;-82
2021/08/06 01:40:16;;;;;;;;;;;19.80;80.50;;;;;;5075723;28;19909;-82
2021/08/06 01:43:08;;;;;;;;;;;19.80;80.60;;;;;;5077128;28;20364;-82
2021/08/06 01:45:37;;;;;;;;;;;19.80;80.50;;;;;;5073736;28;20368;-82
2021/08/06 01:48:02;;;;;;;;;;;19.80;81.00;;;;;;5075569;28;20284;-82
2021/08/06 01:50:36;;;;;;;;;;;19.70;81.10;;;;;;5076978;28;19912;-82
2021/08/06 01:53:03;;;;;;;;;;;19.70;81.30;;;;;;5075761;28;19915;-81
2021/08/06 01:55:35;;;;;;;;;;;19.60;81.40;;;;;;5066313;28;20002;-82
2021/08/06 01:58:01;;;;;;;;;;;19.60;81.60;;;;;;5076910;28;19940;-82
2021/08/06 02:00:26;;;;;;;;;;;19.60;82.10;;;;;;5075573;28;19958;-82
2021/08/06 02:02:53;;;;;;;;;;;19.60;83.10;;;;;;5076501;28;19908;-82
2021/08/06 02:05:20;;;;;;;;;;;19.50;84.00;;;;;;5074203;28;20246;-82
2021/08/06 02:07:46;;;;;;;;;;;19.50;84.20;;;;;;5074450;28;19916;-82
2021/08/06 02:10:12;;;;;;;;;;;19.40;84.30;;;;;;5075539;28;19917;-82
2021/08/06 02:12:38;;;;;;;;;;;19.30;84.40;;;;;;5075428;28;19908;-82
2021/08/06 02:15:04;;;;;;;;;;;19.30;84.60;;;;;;5074918;28;20312;-82
2021/08/06 02:17:30;;;;;;;;;;;19.30;84.60;;;;;;5075404;28;19908;-82
2021/08/06 02:19:56;;;;;;;;;;;19.30;84.60;;;;;;5091481;28;19927;-82
2021/08/06 02:22:22;;;;;;;;;;;19.30;85.00;;;;;;5076422;28;19908;-82
2021/08/06 02:24:48;;;;;;;;;;;19.20;85.00;;;;;;5076274;28;19912;-82
2021/08/06 02:27:15;;;;;;;;;;;19.30;85.20;;;;;;5076293;28;20045;-82
2021/08/06 02:29:42;;;;;;;;;;;19.20;85.10;;;;;;5074844;28;20284;-81
2021/08/06 02:32:08;;;;;;;;;;;19.20;85.20;;;;;;5074911;28;19905;-82
2021/08/06 02:34:33;;;;;;;;;;;19.20;85.20;;;;;;5074945;28;19909;-82
2021/08/06 02:36:59;;;;;;;;;;;19.20;85.30;;;;;;5076192;28;20262;-82
2021/08/06 02:39:26;;;;;;;;;;;19.20;85.30;;;;;;5074839;28;19912;-81
2021/08/06 02:41:52;;;;;;;;;;;19.20;85.40;;;;;;5075144;28;19912;-82
2021/08/06 02:44:17;;;;;;;;;;;19.10;85.40;;;;;;5076111;28;19911;-82
2021/08/06 02:46:43;;;;;;;;;;;19.10;85.50;;;;;;5075779;28;20365;-82
2021/08/06 02:49:09;;;;;;;;;;;19.10;85.50;;;;;;5057839;28;19913;-81
2021/08/06 02:51:34;;;;;;;;;;;19.10;85.50;;;;;;5075912;28;19908;-82
2021/08/06 02:54:00;;;;;;;;;;;19.10;85.50;;;;;;5075895;28;19904;-82
2021/08/06 02:56:26;;;;;;;;;;;19.10;85.60;;;;;;5057845;28;20003;-82
2021/08/06 02:58:51;;;;;;;;;;;19.10;85.60;;;;;;5075713;28;19904;-82
2021/08/06 03:01:17;;;;;;;;;;;19.10;86.30;;;;;;5065928;28;20007;-82
2021/08/06 03:03:42;;;;;;;;;;;19.10;86.50;;;;;;5055576;28;19915;-81
2021/08/06 03:06:08;;;;;;;;;;;19.10;86.80;;;;;;5065538;28;19908;-81
2021/08/06 03:08:33;;;;;;;;;;;19.10;87.30;;;;;;5074190;28;19921;-82
2021/08/06 03:10:59;;;;;;;;;;;19.00;87.20;;;;;;5057392;28;19912;-82
2021/08/06 03:13:24;;;;;;;;;;;19.00;87.40;;;;;;5075247;28;19909;-82
2021/08/06 03:15:49;;;;;;;;;;;19.00;87.20;;;;;;5075376;28;20399;-82
2021/08/06 03:18:15;;;;;;;;;;;19.00;87.20;;;;;;5075239;28;19958;-82
2021/08/06 03:20:41;;;;;;;;;;;19.00;87.10;;;;;;5075417;28;19915;-82
2021/08/06 03:23:06;;;;;;;;;;;19.00;87.00;;;;;;5090894;28;20316;-81
2021/08/06 03:25:32;;;;;;;;;;;19.00;87.00;;;;;;5074000;28;19905;-82
2021/08/06 03:27:58;;;;;;;;;;;19.00;87.00;;;;;;5075000;28;19917;-82
2021/08/06 03:30:24;;;;;;;;;;;19.00;87.00;;;;;;5075245;28;19904;-82
2021/08/06 03:32:50;;;;;;;;;;;19.00;86.90;;;;;;5073851;28;20361;-81
2021/08/06 03:35:15;;;;;;;;;;;18.90;86.90;;;;;;5075234;28;20288;-82
2021/08/06 03:37:42;;;;;;;;;;;18.90;87.10;;;;;;5085312;28;19908;-82
2021/08/06 03:40:07;;;;;;;;;;;18.90;87.70;;;;;;5073683;28;19962;-82
2021/08/06 03:42:33;;;;;;;;;;;18.90;87.60;;;;;;5056809;28;20289;-82
2021/08/06 03:44:58;;;;;;;;;;;18.90;87.80;;;;;;5074857;28;19908;-82
2021/08/06 03:47:24;;;;;;;;;;;18.90;87.90;;;;;;5074710;28;19931;-81
2021/08/06 03:49:49;;;;;;;;;;;18.90;87.70;;;;;;5073207;28;20265;-82
2021/08/06 03:52:15;;;;;;;;;;;18.90;87.70;;;;;;5074557;28;19908;-82
2021/08/06 03:54:40;;;;;;;;;;;18.80;87.70;;;;;;5061774;28;19963;-82
2021/08/06 03:57:06;;;;;;;;;;;18.80;87.70;;;;;;5053392;28;19904;-82
2021/08/06 03:59:32;;;;;;;;;;;18.80;87.60;;;;;;5054611;28;19915;-82
2021/08/06 04:01:57;;;;;;;;;;;18.80;87.60;;;;;;5054385;28;19909;-82
2021/08/06 04:04:23;;;;;;;;;;;18.80;88.00;;;;;;5053360;28;19909;-81
2021/08/06 04:06:48;;;;;;;;;;;18.80;88.10;;;;;;5054537;28;19909;-81
2021/08/06 04:09:14;;;;;;;;;;;18.70;88.10;;;;;;5068637;28;19925;-82
2021/08/06 04:11:39;;;;;;;;;;;18.70;88.20;;;;;;5074254;28;19919;-82
2021/08/06 04:14:05;;;;;;;;;;;18.70;88.40;;;;;;5056043;28;19980;-82
2021/08/06 04:16:30;;;;;;;;;;;18.70;88.60;;;;;;5072615;28;19916;-82
2021/08/06 04:18:56;;;;;;;;;;;18.70;88.60;;;;;;5073645;28;19909;-82
2021/08/06 04:21:22;;;;;;;;;;;18.70;88.60;;;;;;5073139;28;19935;-82
2021/08/06 04:23:47;;;;;;;;;;;18.70;88.80;;;;;;5071320;28;20380;-81
2021/08/06 04:26:13;;;;;;;;;;;18.70;88.70;;;;;;5072182;28;19909;-82
2021/08/06 04:28:39;;;;;;;;;;;18.70;89.30;;;;;;5072372;28;20393;-82
2021/08/06 04:31:05;;;;;;;;;;;18.70;89.50;;;;;;5072530;28;20030;-82
2021/08/06 04:33:31;;;;;;;;;;;18.70;90.00;;;;;;5072389;28;19913;-82
2021/08/06 04:35:56;;;;;;;;;;;18.60;89.70;;;;;;5072582;28;19904;-82
2021/08/06 04:38:22;;;;;;;;;;;18.60;89.80;;;;;;5073625;28;20420;-82
2021/08/06 04:40:47;;;;;;;;;;;18.60;90.00;;;;;;5073589;28;19919;-82
2021/08/06 04:43:13;;;;;;;;;;;18.60;90.10;;;;;;5072455;28;19927;-82
2021/08/06 04:45:39;;;;;;;;;;;18.70;90.20;;;;;;5072562;28;19904;-82
2021/08/06 04:48:04;;;;;;;;;;;18.60;90.10;;;;;;5073430;28;20007;-82
2021/08/06 04:50:30;;;;;;;;;;;18.70;90.10;;;;;;5073374;28;20380;-82
2021/08/06 04:52:56;;;;;;;;;;;18.70;90.10;;;;;;5072312;28;20372;-82
2021/08/06 04:55:23;;;;;;;;;;;18.70;90.20;;;;;;5072255;28;20006;-82
2021/08/06 04:57:48;;;;;;;;;;;18.70;90.20;;;;;;5071895;28;19912;-82
2021/08/06 05:00:14;;;;;;;;;;;18.70;90.10;;;;;;5073166;28;19920;-82
2021/08/06 05:02:39;;;;;;;;;;;18.80;90.10;;;;;;5071798;28;19917;-82
2021/08/06 05:05:05;;;;;;;;;;;18.80;90.10;;;;;;5077210;28;20314;-82
2021/08/06 05:07:30;;;;;;;;;;;18.80;90.00;;;;;;5079975;28;19904;-81
2021/08/06 05:09:56;;;;;;;;;;;18.80;90.10;;;;;;5078967;28;19927;-82
2021/08/06 05:12:22;;;;;;;;;;;18.80;90.10;;;;;;5080188;28;19912;-82
2021/08/06 05:14:47;;;;;;;;;;;18.80;90.20;;;;;;5062119;28;19966;-82
2021/08/06 05:17:13;;;;;;;;;;;18.80;90.30;;;;;;5070535;28;19915;-83
2021/08/06 05:19:39;;;;;;;;;;;18.80;90.20;;;;;;5080129;28;19904;-82
2021/08/06 05:22:04;;;;;;;;;;;18.80;90.40;;;;;;5078976;28;19908;-82
2021/08/06 05:24:30;;;;;;;;;;;18.80;90.30;;;;;;5080086;28;19913;-82
2021/08/06 05:26:56;;;;;;;;;;;18.80;90.30;;;;;;5080201;28;20007;-82
2021/08/06 05:29:22;;;;;;;;;;;18.80;90.40;;;;;;5078487;28;20353;-82
2021/08/06 05:31:47;;;;;;;;;;;18.80;90.40;;;;;;5078517;28;19991;-82
2021/08/06 05:34:13;;;;;;;;;;;18.80;90.50;;;;;;5078767;28;20364;-82
2021/08/06 05:36:38;;;;;;;;;;;18.80;90.50;;;;;;5079149;28;19911;-81
2021/08/06 05:39:04;;;;;;;;;;;18.80;90.50;;;;;;5079238;28;19912;-82
2021/08/06 05:41:29;;;;;;;;;;;18.80;90.50;;;;;;5077985;28;20345;-82
2021/08/06 05:43:55;;;;;;;;;;;18.80;90.50;;;;;;5094824;28;19909;-82
2021/08/06 05:46:20;;;;;;;;;;;18.90;90.40;;;;;;5095695;28;19995;-82
2021/08/06 05:48:46;;;;;;;;;;;18.90;90.40;;;;;;5095633;28;19919;-81
2021/08/06 05:51:11;;;;;;;;;;;19.00;90.30;;;;;;5078887;28;20323;-81
2021/08/06 05:53:37;;;;;;;;;;;19.00;90.30;;;;;;5079930;28;20007;-81
2021/08/06 05:56:03;;;;;;;;;;;19.10;90.30;;;;;;5095551;28;19908;-81
2021/08/06 05:58:28;;;;;;;;;;;19.10;90.30;;;;;;5080011;28;19999;-81
2021/08/06 06:00:54;;;;;;;;;;;19.10;90.20;;;;;;5079669;28;19967;-81
2021/08/06 06:03:19;;;;;;;;;;;19.20;90.20;;;;;;5078872;28;19908;-81
2021/08/06 06:05:45;;;;;;;;;;;19.20;90.10;;;;;;5079757;28;19912;-81
2021/08/06 06:08:11;;;;;;;;;;;19.30;90.10;;;;;;5079562;28;19919;-80
2021/08/06 06:10:36;;;;;;;;;;;19.30;90.00;;;;;;5079755;28;20245;-80
2021/08/06 06:13:03;;;;;;;;;;;19.30;90.10;;;;;;5079650;28;20296;-80
2021/08/06 06:15:29;;;;;;;;;;;19.20;90.20;;;;;;5077692;28;19950;-80
2021/08/06 06:17:54;;;;;;;;;;;19.20;90.20;;;;;;5074926;28;20280;-80
2021/08/06 06:20:20;;;;;;;;;;;19.30;90.20;;;;;;5076499;28;19911;-80
2021/08/06 06:22:46;;;;;;;;;;;19.30;90.20;;;;;;5076468;28;19908;-80
2021/08/06 06:25:12;;;;;;;;;;;19.20;90.20;;;;;;5076257;28;20272;-80
2021/08/06 06:27:50;;;;;;;;;;;19.20;90.20;;;;;;5075920;28;20011;-80
2021/08/06 06:30:16;;;;;;;;;;;19.30;90.30;;;;;;5055902;28;19991;-80
2021/08/06 06:32:41;;;;;;;;;;;19.30;90.40;;;;;;5055708;28;20350;-80
2021/08/06 06:35:07;;;;;;;;;;;19.30;90.30;;;;;;5056160;28;19942;-80
2021/08/06 06:37:32;;;;;;;;;;;19.40;90.40;;;;;;5055720;28;20038;-80
2021/08/06 06:39:58;;;;;;;;;;;19.50;90.30;;;;;;5074648;28;19927;-81
2021/08/06 06:42:23;;;;;;;;;;;19.50;90.10;;;;;;5074705;28;20080;-81
2021/08/06 06:44:49;;;;;;;;;;;19.60;90.00;;;;;;5074458;28;19918;-80
2021/08/06 06:47:14;;;;;;;;;;;19.70;90.00;;;;;;5074359;28;19918;-80
2021/08/06 06:49:40;;;;;;;;;;;19.70;89.80;;;;;;5074816;28;20307;-80
2021/08/06 06:52:05;;;;;;;;;;;19.70;89.80;;;;;;5074006;28;19912;-80
2021/08/06 06:54:31;;;;;;;;;;;19.70;90.00;;;;;;5085713;28;19956;-80
2021/08/06 06:56:56;;;;;;;;;;;19.70;90.00;;;;;;5064728;28;19971;-80
2021/08/06 06:59:22;;;;;;;;;;;19.70;90.10;;;;;;5075774;28;19954;-80
2021/08/06 07:01:47;;;;;;;;;;;19.70;89.90;;;;;;5076074;28;20357;-80
2021/08/06 07:04:13;;;;;;;;;;;19.60;89.60;;;;;;5074617;28;19948;-80
2021/08/06 07:06:38;;;;;;;;;;;19.70;89.20;;;;;;5074639;28;20370;-80
2021/08/06 07:09:07;;;;;;;;;;;19.70;89.20;;;;;;5075490;28;19920;-80
2021/08/06 07:11:32;;;;;;;;;;;19.70;88.90;;;;;;5075778;28;19912;-80
2021/08/06 07:13:58;;;;;;;;;;;19.80;88.60;;;;;;5075497;28;19972;-80
2021/08/06 07:16:23;;;;;;;;;;;19.90;88.50;;;;;;5057531;28;19916;-80
2021/08/06 07:18:49;;;;;;;;;;;19.90;88.20;;;;;;5075383;28;20281;-80
2021/08/06 07:21:14;;;;;;;;;;;20.00;87.80;;;;;;5074931;28;19924;-80
2021/08/06 07:23:40;;;;;;;;;;;20.00;87.90;;;;;;5075072;28;19919;-80
2021/08/06 07:26:06;;;;;;;;;;;20.00;87.60;;;;;;5090833;28;19919;-80
2021/08/06 07:28:31;;;;;;;;;;;20.00;88.10;;;;;;5073650;28;19920;-80
2021/08/06 07:30:56;;;;;;;;;;;20.10;87.40;;;;;;5073956;28;19915;-80
2021/08/06 07:33:22;;;;;;;;;;;20.10;87.00;;;;;;5057258;28;20261;-80
2021/08/06 07:35:47;;;;;;;;;;;20.20;86.90;;;;;;5075222;28;19909;-81
2021/08/06 07:38:13;;;;;;;;;;;20.20;86.70;;;;;;5075033;28;19908;-80
2021/08/06 07:40:38;;;;;;;;;;;20.20;86.40;;;;;;5074717;28;19913;-79
2021/08/06 07:43:04;;;;;;;;;;;20.30;85.80;;;;;;5073668;28;19912;-79
2021/08/06 07:45:29;;;;;;;;;;;20.30;85.80;;;;;;5090603;28;19999;-79
2021/08/06 07:47:55;;;;;;;;;;;20.30;85.10;;;;;;5090521;28;20356;-79
2021/08/06 07:50:20;;;;;;;;;;;20.30;85.50;;;;;;5073446;28;19916;-79
2021/08/06 07:52:46;;;;;;;;;;;20.30;85.50;;;;;;5074661;28;19931;-80
2021/08/06 07:55:13;;;;;;;;;;;20.30;85.10;;;;;;5074592;28;19931;-80
2021/08/06 07:57:39;;;;;;;;;;;20.30;84.50;;;;;;5074706;28;19904;-81
2021/08/06 08:00:05;;;;;;;;;;;20.30;84.60;;;;;;5074559;28;19904;-80
2021/08/06 08:02:31;;;;;;;;;;;20.30;84.50;;;;;;5074429;28;19904;-80
2021/08/06 08:04:57;;;;;;;;;;;20.40;84.40;;;;;;5073181;28;19908;-80
2021/08/06 08:07:23;;;;;;;;;;;20.40;83.90;;;;;;5074226;28;19912;-80
2021/08/06 08:09:48;;;;;;;;;;;20.40;84.00;;;;;;5055964;28;19920;-80
2021/08/06 08:12:14;;;;;;;;;;;20.40;84.00;;;;;;5074619;28;19923;-80
2021/08/06 08:14:39;;;;;;;;;;;20.50;84.00;;;;;;5073067;28;19915;-81
2021/08/06 08:17:05;;;;;;;;;;;20.50;83.10;;;;;;5074060;28;19905;-81
2021/08/06 08:19:30;;;;;;;;;;;20.60;83.00;;;;;;5074258;28;19912;-81
2021/08/06 08:21:56;;;;;;;;;;;20.60;83.30;;;;;;5092552;28;20272;-81
2021/08/06 08:24:21;;;;;;;;;;;20.60;83.70;;;;;;5082073;28;19913;-79
2021/08/06 08:26:47;;;;;;;;;;;20.70;82.70;;;;;;5072783;28;19908;-80
2021/08/06 08:29:13;;;;;;;;;;;20.70;82.50;;;;;;5073937;28;19908;-81
2021/08/06 08:31:38;;;;;;;;;;;20.60;81.80;;;;;;5072144;28;19953;-80
2021/08/06 08:34:04;;;;;;;;;;;20.70;82.80;;;;;;5072792;28;19905;-82
2021/08/06 08:36:29;;;;;;;;;;;20.70;82.70;;;;;;5072614;28;19915;-82
2021/08/06 08:38:55;;;;;;;;;;;20.70;82.40;;;;;;5072091;28;20264;-83
2021/08/06 08:41:21;;;;;;;;;;;20.70;82.70;;;;;;5055972;28;19908;-81
2021/08/06 08:43:46;;;;;;;;;;;20.60;83.00;;;;;;5072603;28;19923;-80
2021/08/06 08:46:12;;;;;;;;;;;20.70;83.20;;;;;;5072641;28;19904;-81
2021/08/06 08:48:38;;;;;;;;;;;20.70;82.90;;;;;;5073635;28;19908;-80
2021/08/06 08:51:04;;;;;;;;;;;20.80;83.00;;;;;;5055822;28;20387;-77
2021/08/06 08:53:29;;;;;;;;;;;21.00;82.80;;;;;;5072751;28;19912;-81
2021/08/06 08:55:55;;;;;;;;;;;21.20;81.50;;;;;;5072537;28;19973;-80
2021/08/06 08:58:21;;;;;;;;;;;21.40;80.50;;;;;;5072552;28;19905;-81
2021/08/06 09:00:46;;;;;;;;;;;21.50;79.60;;;;;;5055617;28;19915;-80
2021/08/06 09:03:31;;;;;;;;;;;21.60;79.90;;;;;;5072549;28;19909;-80
2021/08/06 09:05:56;;;;;;;;;;;21.80;78.80;;;;;;5073362;28;19957;-80
2021/08/06 09:08:22;;;;;;;;;;;22.00;78.10;;;;;;5072099;28;20314;-81
2021/08/06 09:10:47;;;;;;;;;;;22.10;77.60;;;;;;5073529;28;19965;-81
2021/08/06 09:13:13;;;;;;;;;;;22.30;77.90;;;;;;5073427;28;19909;-80
2021/08/06 09:15:40;;;;;;;;;;;22.30;76.30;;;;;;5072428;28;19915;-81
2021/08/06 09:18:20;;;;;;;;;;;22.30;77.00;;;;;;5072179;28;19904;-81
2021/08/06 09:20:46;;;;;;;;;;;22.30;78.10;;;;;;5074083;28;19911;-91
2021/08/06 09:23:12;;;;;;;;;;;22.40;77.10;;;;;;5073810;28;20288;-89
2021/08/06 09:25:38;;;;;;;;;;;22.50;77.00;;;;;;5056041;28;19908;-89
2021/08/06 09:28:03;;;;;;;;;;;22.60;76.50;;;;;;5056746;28;19916;-90
2021/08/06 09:30:39;;;;;;;;;;;22.70;75.60;;;;;;5073184;28;19944;-89
2021/08/06 09:33:10;;;;;;;;;;;22.60;75.80;;;;;;5073443;28;19916;-86
2021/08/06 09:35:36;;;;;;;;;;;22.30;75.70;;;;;;5073233;28;19922;-79
2021/08/06 09:38:02;;;;;;;;;;;22.00;77.20;;;;;;5072113;28;19994;-82
2021/08/06 09:40:29;;;;;;;;;;;21.80;79.20;;;;;;5073087;28;19912;-81
2021/08/06 09:42:54;;;;;;;;;;;21.60;80.40;;;;;;5073428;28;20272;-82
2021/08/06 09:45:21;;;;;;;;;;;21.70;81.10;;;;;;5088262;28;19912;-80
2021/08/06 09:47:55;;;;;;;;;;;21.70;81.10;;;;;;5072895;28;19904;-80
2021/08/06 09:50:21;;;;;;;;;;;21.90;80.80;;;;;;5052804;28;19919;-80
2021/08/06 09:52:51;;;;;;;;;;;22.00;80.50;;;;;;5067281;28;19962;-80
2021/08/06 09:55:18;;;;;;;;;;;22.00;79.70;;;;;;5067157;28;19908;-80
2021/08/06 09:57:44;;;;;;;;;;;22.20;79.80;;;;;;5075346;28;19908;-80
2021/08/06 10:00:12;;;;;;;;;;;22.40;78.60;;;;;;5076482;28;19908;-80
2021/08/06 10:02:40;;;;;;;;;;;22.60;76.40;;;;;;5075842;28;19958;-81
2021/08/06 10:05:09;;;;;;;;;;;22.60;76.30;;;;;;5075861;28;20041;-81
2021/08/06 10:07:41;;;;;;;;;;;22.60;76.40;;;;;;5075354;28;19904;-81
2021/08/06 10:10:08;;;;;;;;;;;22.50;74.00;;;;;;5075009;28;20341;-81
2021/08/06 10:12:34;;;;;;;;;;;22.50;72.40;;;;;;5075298;28;19908;-81
2021/08/06 10:14:59;;;;;;;;;;;22.40;72.60;;;;;;5075839;28;19941;-81
2021/08/06 10:17:25;;;;;;;;;;;22.50;73.90;;;;;;5083890;28;19914;-80
2021/08/06 10:19:51;;;;;;;;;;;22.80;73.90;;;;;;5075849;28;19962;-80
2021/08/06 10:22:17;;;;;;;;;;;23.10;73.60;;;;;;5076218;28;19912;-81
2021/08/06 10:24:47;;;;;;;;;;;23.40;72.10;;;;;;5075087;28;20008;-81
2021/08/06 10:27:13;;;;;;;;;;;23.70;70.30;;;;;;5076061;28;19911;-82
2021/08/06 10:30:11;;;;;;;;;;;24.00;70.60;;;;;;5075004;28;19999;-78
2021/08/06 10:32:38;;;;;;;;;;;24.10;67.90;;;;;;5052936;28;19911;-77
2021/08/06 10:35:08;;;;;;;;;;;24.00;69.60;;;;;;5057993;28;19959;-78
2021/08/06 10:37:45;;;;;;;;;;;23.80;69.60;;;;;;5070263;28;19915;-78
2021/08/06 10:40:11;;;;;;;;;;;23.70;69.50;;;;;;5091763;28;19958;-82
2021/08/06 10:42:36;;;;;;;;;;;23.70;68.80;;;;;;5076022;28;20368;-82
2021/08/06 10:45:02;;;;;;;;;;;23.70;69.20;;;;;;5075911;28;19915;-83
2021/08/06 10:47:46;;;;;;;;;;;23.90;67.90;;;;;;5080029;28;19908;-82
2021/08/06 10:50:16;;;;;;;;;;;24.10;68.00;;;;;;5075532;28;19916;-81
2021/08/06 10:52:42;;;;;;;;;;;24.40;66.50;;;;;;5076055;28;20297;-81
2021/08/06 10:55:15;;;;;;;;;;;24.40;64.50;;;;;;5075932;28;19908;-81
2021/08/06 10:57:41;;;;;;;;;;;24.40;63.50;;;;;;5074891;28;19939;-81
2021/08/06 11:00:07;;;;;;;;;;;24.40;64.90;;;;;;5074833;28;19943;-81
2021/08/06 11:02:42;;;;;;;;;;;24.40;64.60;;;;;;5074984;28;19905;-81
2021/08/06 11:05:26;;;;;;;;;;;24.20;64.20;;;;;;5074218;28;19904;-82
2021/08/06 11:07:52;;;;;;;;;;;24.00;65.40;;;;;;5075436;28;19912;-81
2021/08/06 11:10:36;;;;;;;;;;;23.90;64.30;;;;;;5073816;28;19920;-81
2021/08/06 11:13:22;;;;;;;;;;;23.60;66.30;;;;;;5072875;28;19908;-82
2021/08/06 11:16:04;;;;;;;;;;;23.40;66.70;;;;;;5053741;28;19905;-80
2021/08/06 11:18:30;;;;;;;;;;;23.30;67.50;;;;;;5054977;28;19905;-80
2021/08/06 11:20:55;;;;;;;;;;;23.40;68.30;;;;;;5075547;28;20000;-80
2021/08/06 11:23:21;;;;;;;;;;;23.40;68.70;;;;;;5075202;28;19915;-80
2021/08/06 11:25:47;;;;;;;;;;;23.50;68.40;;;;;;5059952;28;19913;-79
2021/08/06 11:28:23;;;;;;;;;;;23.60;68.30;;;;;;5055597;28;20030;-80
2021/08/06 11:30:48;;;;;;;;;;;23.70;67.80;;;;;;5062813;28;20353;-78
2021/08/06 11:33:14;;;;;;;;;;;23.80;68.10;;;;;;5078768;28;19942;-80
2021/08/06 11:35:40;;;;;;;;;;;24.00;67.50;;;;;;5074965;28;19904;-82
2021/08/06 11:38:07;;;;;;;;;;;24.10;65.40;;;;;;5073770;28;19912;-82
2021/08/06 11:40:39;;;;;;;;;;;24.10;65.40;;;;;;5074892;28;19915;-82
2021/08/06 11:43:12;;;;;;;;;;;24.10;65.20;;;;;;5073036;28;19908;-80
2021/08/06 11:45:38;;;;;;;;;;;24.30;65.20;;;;;;5074593;28;19997;-81
2021/08/06 11:48:04;;;;;;;;;;;24.40;65.10;;;;;;5074565;28;19970;-83
2021/08/06 11:50:43;;;;;;;;;;;24.40;65.00;;;;;;5074784;28;20361;-84
2021/08/06 11:53:14;;;;;;;;;;;24.50;65.10;;;;;;5074675;28;19904;-85
2021/08/06 11:55:41;;;;;;;;;;;24.70;64.20;;;;;;5090163;28;19904;-82
2021/08/06 11:58:06;;;;;;;;;;;24.80;64.30;;;;;;5073654;28;19927;-82
2021/08/06 12:00:33;;;;;;;;;;;24.80;63.30;;;;;;5074523;28;19909;-81
2021/08/06 12:03:13;;;;;;;;;;;24.80;63.50;;;;;;5074687;28;19908;-80
2021/08/06 12:05:39;;;;;;;;;;;24.80;63.70;;;;;;5073790;28;20264;-82
2021/08/06 12:08:23;;;;;;;;;;;24.80;62.70;;;;;;5056835;28;19904;-82
2021/08/06 12:10:54;;;;;;;;;;;24.80;63.40;;;;;;5054358;28;20412;-81
2021/08/06 12:13:22;;;;;;;;;;;24.90;63.60;;;;;;5053951;28;19904;-81
2021/08/06 12:15:57;;;;;;;;;;;25.00;62.80;;;;;;5066202;28;19931;-81
2021/08/06 12:18:23;;;;;;;;;;;25.00;62.90;;;;;;5074136;28;19940;-80
2021/08/06 12:20:51;;;;;;;;;;;24.90;60.50;;;;;;5074500;28;20662;-82
2021/08/06 12:23:20;;;;;;;;;;;24.70;62.10;;;;;;5068688;28;19958;-81
2021/08/06 12:26:04;;;;;;;;;;;24.50;62.60;;;;;;5053135;28;19912;-82
2021/08/06 12:28:30;;;;;;;;;;;24.30;63.20;;;;;;5054059;28;20007;-82
2021/08/06 12:31:10;;;;;;;;;;;24.00;64.00;;;;;;5059892;28;19908;-81
2021/08/06 12:33:35;;;;;;;;;;;23.70;64.70;;;;;;5074274;28;20251;-79
2021/08/06 12:36:11;;;;;;;;;;;23.50;65.10;;;;;;5072310;28;19991;-76
2021/08/06 12:38:37;;;;;;;;;;;23.40;65.80;;;;;;5073775;28;19954;-82
2021/08/06 12:41:03;;;;;;;;;;;23.40;65.80;;;;;;5081086;28;19916;-80
2021/08/06 12:43:28;;;;;;;;;;;23.70;65.10;;;;;;5075169;28;19943;-82
2021/08/06 12:46:10;;;;;;;;;;;24.00;64.10;;;;;;5067594;28;19905;-82
2021/08/06 12:48:36;;;;;;;;;;;24.20;62.50;;;;;;5053761;28;19915;-82
2021/08/06 12:51:21;;;;;;;;;;;24.50;62.30;;;;;;5053746;28;19940;-81
2021/08/06 12:53:47;;;;;;;;;;;24.80;61.50;;;;;;5072119;28;20319;-83
2021/08/06 12:56:12;;;;;;;;;;;24.90;61.20;;;;;;5073570;28;19909;-82
2021/08/06 12:58:38;;;;;;;;;;;24.90;60.70;;;;;;5072542;28;20387;-82
2021/08/06 13:01:03;;;;;;;;;;;25.00;61.20;;;;;;5055717;28;19955;-82
2021/08/06 13:03:30;;;;;;;;;;;25.00;59.90;;;;;;5073466;28;20353;-82
2021/08/06 13:05:57;;;;;;;;;;;25.10;59.80;;;;;;5073448;28;19920;-82
2021/08/06 13:08:23;;;;;;;;;;;25.00;60.00;;;;;;5072133;28;20487;-82
2021/08/06 13:10:50;;;;;;;;;;;25.00;60.60;;;;;;5060633;28;19921;-82
2021/08/06 13:13:17;;;;;;;;;;;25.00;61.00;;;;;;5057953;28;19919;-82
2021/08/06 13:15:42;;;;;;;;;;;25.00;60.40;;;;;;5073253;28;19911;-82
2021/08/06 13:18:10;;;;;;;;;;;25.00;60.90;;;;;;5072759;28;19995;-81
2021/08/06 13:20:38;;;;;;;;;;;25.00;60.90;;;;;;5072847;28;19912;-81
2021/08/06 13:23:04;;;;;;;;;;;25.10;60.60;;;;;;5072696;28;19924;-81
2021/08/06 13:25:30;;;;;;;;;;;25.10;60.70;;;;;;5073953;28;19905;-81
2021/08/06 13:27:55;;;;;;;;;;;25.10;59.90;;;;;;5075980;28;19915;-81
2021/08/06 13:30:21;;;;;;;;;;;25.10;60.90;;;;;;5075499;28;19919;-80
2021/08/06 13:32:46;;;;;;;;;;;25.00;60.80;;;;;;5075640;28;19956;-80
2021/08/06 13:35:12;;;;;;;;;;;25.00;60.90;;;;;;5076072;28;20353;-80
2021/08/06 13:37:38;;;;;;;;;;;24.80;61.40;;;;;;5077250;28;19916;-80
2021/08/06 13:40:04;;;;;;;;;;;24.70;61.70;;;;;;5077207;28;19904;-82
2021/08/06 13:42:30;;;;;;;;;;;24.50;62.30;;;;;;5075936;28;19999;-81
2021/08/06 13:44:55;;;;;;;;;;;24.30;62.30;;;;;;5076877;28;20005;-81
2021/08/06 13:47:23;;;;;;;;;;;24.10;63.10;;;;;;5077060;28;19915;-81
2021/08/06 13:49:49;;;;;;;;;;;24.10;64.20;;;;;;5075493;28;19915;-82
2021/08/06 13:52:15;;;;;;;;;;;24.20;64.60;;;;;;5076164;28;19908;-80
2021/08/06 13:54:40;;;;;;;;;;;24.40;64.10;;;;;;5075646;28;19916;-82
2021/08/06 13:57:06;;;;;;;;;;;24.70;64.00;;;;;;5075379;28;19904;-82
2021/08/06 13:59:31;;;;;;;;;;;25.00;63.70;;;;;;5075235;28;19918;-82
2021/08/06 14:01:57;;;;;;;;;;;25.10;62.80;;;;;;5076617;28;20268;-82
2021/08/06 14:04:22;;;;;;;;;;;25.20;62.70;;;;;;5076423;28;19905;-81
2021/08/06 14:06:48;;;;;;;;;;;25.40;62.60;;;;;;5075321;28;19912;-83
2021/08/06 14:09:13;;;;;;;;;;;25.40;62.40;;;;;;5075022;28;19931;-80
2021/08/06 14:11:39;;;;;;;;;;;25.50;61.80;;;;;;5076344;28;19963;-81
2021/08/06 14:14:04;;;;;;;;;;;25.60;61.50;;;;;;5075462;28;19909;-81
2021/08/06 14:16:32;;;;;;;;;;;25.50;61.20;;;;;;5075102;28;19969;-81